Time;durP1;ratioP1;P1;durP2;ratioP2;P2;SDS_P1;SDS_P2;PMS_P1;PMS_P2;Temp;Humidity;BMP_temperature;BMP_pressure;BME280_temperature;BME280_humidity;BME280_pressure;Samples;Min_cycle;Max_cycle;Signal;HPM_P1;HPM_P2
2022/07/08 00:01:54;;;;;;;1999.90;999.90;;;14.30;99.90;;;;;;5067974;28;20471;-75
2022/07/08 00:04:21;;;;;;;1999.90;999.90;;;14.30;99.90;;;;;;5049995;28;20046;-75
2022/07/08 00:06:47;;;;;;;1999.90;999.90;;;14.30;99.90;;;;;;5079153;28;20536;-75
2022/07/08 00:09:13;;;;;;;1999.90;999.90;;;14.30;99.90;;;;;;5066123;28;20040;-75
2022/07/08 00:11:40;;;;;;;1999.90;999.90;;;14.30;99.90;;;;;;5071032;28;20047;-75
2022/07/08 00:14:06;;;;;;;1999.90;999.90;;;14.10;99.90;;;;;;5072909;28;20123;-74
2022/07/08 00:16:33;;;;;;;1999.90;999.90;;;14.10;99.90;;;;;;5063579;28;20039;-74
2022/07/08 00:18:59;;;;;;;1999.90;999.90;;;14.10;99.90;;;;;;5063351;28;20047;-75
2022/07/08 00:21:25;;;;;;;1999.90;999.90;;;14.00;99.90;;;;;;5067972;28;20071;-75
2022/07/08 00:23:51;;;;;;;1999.90;999.90;;;14.00;99.90;;;;;;5050355;28;20055;-75
2022/07/08 00:26:17;;;;;;;1999.90;999.90;;;14.00;99.90;;;;;;5066887;28;20906;-75
2022/07/08 00:28:42;;;;;;;1999.90;999.90;;;14.00;99.90;;;;;;5085330;28;20047;-75
2022/07/08 00:31:08;;;;;;;1999.90;999.90;;;14.00;99.90;;;;;;5082888;28;20134;-75
2022/07/08 00:33:34;;;;;;;1999.90;999.90;;;14.00;99.90;;;;;;5067399;28;20044;-75
2022/07/08 00:35:59;;;;;;;1999.90;999.90;;;13.90;99.90;;;;;;5051223;28;20134;-75
2022/07/08 00:38:25;;;;;;;1999.90;999.90;;;14.00;99.90;;;;;;5064492;28;20892;-75
2022/07/08 00:40:51;;;;;;;1999.90;999.90;;;14.00;99.90;;;;;;5066122;28;20060;-75
2022/07/08 00:43:35;;;;;;;1999.90;999.90;;;14.00;99.90;;;;;;5053323;28;20040;-75
2022/07/08 00:46:01;;;;;;;1999.90;999.90;;;14.00;99.90;;;;;;5100268;28;20494;-75
2022/07/08 00:48:27;;;;;;;1999.90;999.90;;;14.00;99.90;;;;;;5051861;28;20055;-75
2022/07/08 00:50:52;;;;;;;1999.90;999.90;;;14.00;99.90;;;;;;5062267;28;20159;-75
2022/07/08 00:53:18;;;;;;;1999.90;999.90;;;14.00;99.90;;;;;;5082466;28;20039;-75
2022/07/08 00:55:44;;;;;;;1999.90;999.90;;;14.00;99.90;;;;;;5073794;28;20577;-75
2022/07/08 00:58:11;;;;;;;1999.90;999.90;;;14.00;99.90;;;;;;5065776;28;20036;-75
2022/07/08 01:00:37;;;;;;;1999.90;999.90;;;13.90;99.90;;;;;;5084338;28;20044;-75
2022/07/08 01:03:02;;;;;;;1999.90;999.90;;;13.90;99.90;;;;;;5051292;28;20521;-75
2022/07/08 01:05:28;;;;;;;1999.90;999.90;;;13.80;99.90;;;;;;5083946;28;20039;-75
2022/07/08 01:07:54;;;;;;;1999.90;999.90;;;13.70;99.90;;;;;;5071861;28;20291;-75
2022/07/08 01:10:19;;;;;;;1999.90;999.90;;;13.70;99.90;;;;;;5052833;28;20406;-75
2022/07/08 01:12:45;;;;;;;1999.90;999.90;;;13.50;99.90;;;;;;5052072;28;20042;-75
2022/07/08 01:15:11;;;;;;;1999.90;999.90;;;13.50;99.90;;;;;;5052756;28;20067;-75
2022/07/08 01:17:43;;;;;;;1999.90;999.90;;;13.30;99.90;;;;;;5051142;28;20489;-75
2022/07/08 01:20:10;;;;;;;;;;;13.20;99.90;;;;;;5057999;28;20397;-74
2022/07/08 01:22:35;;;;;;;1999.90;999.90;;;13.10;99.90;;;;;;5061615;28;19920;-75
2022/07/08 01:25:01;;;;;;;1999.90;999.90;;;13.00;99.90;;;;;;5046536;28;20048;-75
2022/07/08 01:27:26;;;;;;;1999.90;999.90;;;12.90;99.90;;;;;;5054831;28;20040;-74
2022/07/08 01:29:52;;;;;;;1999.90;999.90;;;12.90;99.90;;;;;;5051636;28;20044;-75
2022/07/08 01:32:18;;;;;;;1999.90;999.90;;;12.80;99.90;;;;;;5062495;28;20485;-75
2022/07/08 01:34:43;;;;;;;1999.90;999.90;;;12.70;99.90;;;;;;5088335;28;20137;-75
2022/07/08 01:37:09;;;;;;;1999.90;999.90;;;12.70;99.90;;;;;;5064892;28;20036;-75
2022/07/08 01:39:34;;;;;;;1999.90;999.90;;;12.70;99.90;;;;;;5068353;28;20119;-75
2022/07/08 01:42:00;;;;;;;1999.90;999.90;;;12.70;99.90;;;;;;5069406;28;20127;-75
2022/07/08 01:44:26;;;;;;;1999.90;999.90;;;12.70;99.90;;;;;;5052941;28;20189;-74
2022/07/08 01:46:51;;;;;;;1999.90;999.90;;;12.60;99.90;;;;;;5068209;28;20044;-75
2022/07/08 01:49:17;;;;;;;1999.90;999.90;;;12.60;99.90;;;;;;5051652;28;20040;-75
2022/07/08 01:51:42;;;;;;;1999.90;999.90;;;12.70;99.90;;;;;;5086957;28;20543;-74
2022/07/08 01:54:08;;;;;;;1999.90;999.90;;;12.70;99.90;;;;;;5089531;28;20065;-75
2022/07/08 01:56:34;;;;;;;1999.90;999.90;;;12.70;99.90;;;;;;5051534;28;20032;-75
2022/07/08 01:59:00;;;;;;;1999.90;999.90;;;12.70;99.90;;;;;;5071085;28;20048;-74
2022/07/08 02:01:25;;;;;;;1999.90;999.90;;;12.70;99.90;;;;;;5067270;28;20439;-75
2022/07/08 02:03:51;;;;;;;1999.90;999.90;;;12.60;99.90;;;;;;5083348;28;20082;-74
2022/07/08 02:06:16;;;;;;;1999.90;999.90;;;12.60;99.90;;;;;;5083752;28;20040;-75
2022/07/08 02:08:42;;;;;;;1999.90;999.90;;;12.50;99.90;;;;;;5062185;28;20118;-75
2022/07/08 02:13:52;;;;;;;1999.90;999.90;;;12.40;99.90;;;;;;5067079;28;20501;-75
2022/07/08 02:16:17;;;;;;;1999.90;999.90;;;12.30;99.90;;;;;;5103425;28;20097;-75
2022/07/08 02:18:43;;;;;;;1999.90;999.90;;;12.30;99.90;;;;;;5070311;28;20066;-74
2022/07/08 02:21:08;;;;;;;1999.90;999.90;;;12.20;99.90;;;;;;5092384;28;20037;-75
2022/07/08 02:23:34;;;;;;;1999.90;999.90;;;12.20;99.90;;;;;;5055016;28;20040;-75
2022/07/08 02:26:00;;;;;;;1999.90;999.90;;;12.20;99.90;;;;;;5071688;28;20044;-75
2022/07/08 02:28:25;;;;;;;1999.90;999.90;;;12.20;99.90;;;;;;5069558;28;20340;-75
2022/07/08 02:30:51;;;;;;;1999.90;999.90;;;12.20;99.90;;;;;;5071281;28;20044;-75
2022/07/08 02:33:16;;;;;;;1999.90;999.90;;;12.10;99.90;;;;;;5053597;28;20147;-74
2022/07/08 02:35:42;;;;;;;1999.90;999.90;;;12.10;99.90;;;;;;5053253;28;20033;-75
2022/07/08 02:38:08;;;;;;;1999.90;999.90;;;12.00;99.90;;;;;;5088021;28;20031;-74
2022/07/08 02:40:33;;;;;;;1999.90;999.90;;;12.00;99.90;;;;;;5086723;28;20087;-75
2022/07/08 02:42:59;;;;;;;1999.90;999.90;;;12.00;99.90;;;;;;5054826;28;20148;-75
2022/07/08 02:45:24;;;;;;;1999.90;999.90;;;12.00;99.90;;;;;;5069945;28;20052;-75
2022/07/08 02:47:50;;;;;;;1999.90;999.90;;;12.00;99.90;;;;;;5060601;28;20055;-75
2022/07/08 02:50:16;;;;;;;1999.90;999.90;;;11.90;99.90;;;;;;5059913;28;20044;-75
2022/07/08 02:52:41;;;;;;;1999.90;999.90;;;11.90;99.90;;;;;;5070631;28;20046;-74
2022/07/08 02:55:07;;;;;;;1999.90;999.90;;;11.80;99.90;;;;;;5066262;28;20052;-75
2022/07/08 02:57:32;;;;;;;1999.90;999.90;;;11.80;99.90;;;;;;5077074;28;20058;-74
2022/07/08 02:59:58;;;;;;;1999.90;999.90;;;11.80;99.90;;;;;;5056889;28;20224;-75
2022/07/08 03:02:24;;;;;;;1999.90;999.90;;;11.70;99.90;;;;;;5089229;28;20044;-75
2022/07/08 03:04:51;;;;;;;1999.90;999.90;;;11.70;99.90;;;;;;5065455;28;20040;-75
2022/07/08 03:07:17;;;;;;;1999.90;999.90;;;11.70;99.90;;;;;;5070156;28;20401;-75
2022/07/08 03:09:42;;;;;;;1999.90;999.90;;;11.60;99.90;;;;;;5071815;28;20062;-75
2022/07/08 03:12:08;;;;;;;1999.90;999.90;;;11.60;99.90;;;;;;5067703;28;20513;-75
2022/07/08 03:14:34;;;;;;;1999.90;999.90;;;11.50;99.90;;;;;;5086273;28;20389;-75
2022/07/08 03:16:59;;;;;;;1999.90;999.90;;;11.50;99.90;;;;;;5056265;28;20128;-75
2022/07/08 03:19:25;;;;;;;1999.90;999.90;;;11.50;99.90;;;;;;5054356;28;20055;-75
2022/07/08 03:21:51;;;;;;;1999.90;999.90;;;11.50;99.90;;;;;;5067795;28;20044;-75
2022/07/08 03:24:16;;;;;;;1999.90;999.90;;;11.50;99.90;;;;;;5074285;28;20048;-75
2022/07/08 03:26:42;;;;;;;1999.90;999.90;;;11.50;99.90;;;;;;5090766;28;20036;-75
2022/07/08 03:29:07;;;;;;;1999.90;999.90;;;11.50;99.90;;;;;;5086200;28;20066;-75
2022/07/08 03:31:33;;;;;;;1999.90;999.90;;;11.50;99.90;;;;;;5053178;28;20039;-75
2022/07/08 03:33:59;;;;;;;1999.90;999.90;;;11.60;99.90;;;;;;5069958;28;20189;-75
2022/07/08 03:36:24;;;;;;;1999.90;999.90;;;11.60;99.90;;;;;;5085079;28;20043;-75
2022/07/08 03:38:50;;;;;;;1999.90;999.90;;;11.70;99.90;;;;;;5105412;27;20051;-74
2022/07/08 03:41:22;;;;;;;1999.90;999.90;;;11.70;99.90;;;;;;5070106;28;20529;-75
2022/07/08 03:43:49;;;;;;;;;;;11.70;99.90;;;;;;5070174;28;20051;-75
2022/07/08 03:46:15;;;;;;;1999.90;999.90;;;11.70;99.90;;;;;;5064012;28;19920;-75
2022/07/08 03:48:42;;;;;;;1999.90;999.90;;;11.70;99.90;;;;;;5051399;28;20044;-75
2022/07/08 03:51:08;;;;;;;1999.90;999.90;;;11.70;99.90;;;;;;5052374;28;20172;-74
2022/07/08 03:53:33;;;;;;;1999.90;999.90;;;11.70;99.90;;;;;;5054499;28;20114;-75
2022/07/08 03:55:59;;;;;;;1999.90;999.90;;;11.70;99.90;;;;;;5070635;28;20164;-75
2022/07/08 03:58:25;;;;;;;1999.90;999.90;;;11.70;99.90;;;;;;5074314;28;20185;-75
2022/07/08 04:00:50;;;;;;;1999.90;999.90;;;11.60;99.90;;;;;;5071512;28;20044;-75
2022/07/08 04:03:16;;;;;;;1999.90;999.90;;;11.70;99.90;;;;;;5067279;28;20032;-75
2022/07/08 04:05:42;;;;;;;1999.90;999.90;;;11.70;99.90;;;;;;5070454;28;20123;-75
2022/07/08 04:08:07;;;;;;;1999.90;999.90;;;11.70;99.90;;;;;;5071416;28;20474;-75
2022/07/08 04:10:33;;;;;;;1999.90;999.90;;;11.70;99.90;;;;;;5086368;28;20447;-75
2022/07/08 04:12:58;;;;;;;1999.90;999.90;;;11.80;99.90;;;;;;5066454;28;20052;-75
2022/07/08 04:15:24;;;;;;;1999.90;999.90;;;11.90;99.90;;;;;;5084723;28;20097;-75
2022/07/08 04:17:50;;;;;;;1999.90;999.90;;;12.00;99.90;;;;;;5073697;28;20402;-75
2022/07/08 04:20:15;;;;;;;1999.90;999.90;;;12.20;99.90;;;;;;5062513;28;20079;-75
2022/07/08 04:22:41;;;;;;;1999.90;999.90;;;12.40;99.90;;;;;;5084718;28;20040;-75
2022/07/08 04:25:07;;;;;;;1999.90;999.90;;;12.50;99.90;;;;;;5086198;28;20547;-75
2022/07/08 04:27:33;;;;;;;1999.90;999.90;;;12.60;99.90;;;;;;5084203;28;20040;-75
2022/07/08 04:29:59;;;;;;;1999.90;999.90;;;12.70;99.90;;;;;;5067527;28;20413;-75
2022/07/08 04:32:25;;;;;;;1999.90;999.90;;;12.80;99.90;;;;;;5068081;28;20043;-75
2022/07/08 04:34:51;;;;;;;1999.90;999.90;;;12.90;99.90;;;;;;5052644;28;20044;-75
2022/07/08 04:37:17;;;;;;;1999.90;999.90;;;13.00;99.90;;;;;;5067988;28;20418;-75
2022/07/08 04:39:43;;;;;;;1999.90;999.90;;;13.10;99.90;;;;;;5068608;28;20040;-75
2022/07/08 04:42:09;;;;;;;1999.90;999.90;;;13.10;99.90;;;;;;5066574;28;20035;-75
2022/07/08 04:44:34;;;;;;;1999.90;999.90;;;13.20;99.90;;;;;;5070124;28;20043;-75
2022/07/08 04:47:00;;;;;;;1999.90;999.90;;;13.30;99.90;;;;;;5085798;28;20130;-75
2022/07/08 04:49:26;;;;;;;1999.90;999.90;;;13.40;99.90;;;;;;5058504;28;20043;-75
2022/07/08 04:51:51;;;;;;;1999.90;999.90;;;13.40;99.90;;;;;;5066808;28;20039;-74
2022/07/08 04:54:17;;;;;;;1999.90;999.90;;;13.50;99.90;;;;;;5070630;28;20567;-75
2022/07/08 04:56:42;;;;;;;1999.90;999.90;;;13.60;99.90;;;;;;5063139;28;20036;-75
2022/07/08 04:59:08;;;;;;;1999.90;999.90;;;13.70;99.90;;;;;;5071301;28;20401;-75
2022/07/08 05:01:34;;;;;;;1999.90;999.90;;;13.70;99.90;;;;;;5051071;28;20047;-75
2022/07/08 05:04:00;;;;;;;1999.90;999.90;;;13.90;99.90;;;;;;5068857;28;20039;-75
2022/07/08 05:06:26;;;;;;;1999.90;999.90;;;13.90;99.90;;;;;;5052157;28;20256;-75
2022/07/08 05:08:51;;;;;;;1999.90;999.90;;;14.10;99.90;;;;;;5079365;28;20047;-75
2022/07/08 05:11:17;;;;;;;1999.90;999.90;;;14.20;99.90;;;;;;5067535;28;20067;-75
2022/07/08 05:13:43;;;;;;;1999.90;999.90;;;14.30;99.90;;;;;;5068568;28;20076;-78
2022/07/08 05:16:08;;;;;;;1999.90;999.90;;;14.30;99.90;;;;;;5051506;28;20569;-78
2022/07/08 05:18:34;;;;;;;1999.90;999.90;;;14.40;99.90;;;;;;5069770;28;20043;-78
2022/07/08 05:21:00;;;;;;;1999.90;999.90;;;14.80;99.90;;;;;;5082921;28;20037;-77
2022/07/08 05:23:25;;;;;;;1999.90;999.90;;;15.40;99.90;;;;;;5054202;28;20076;-77
2022/07/08 05:25:51;;;;;;;1999.90;999.90;;;15.50;99.90;;;;;;5082324;28;20032;-77
2022/07/08 05:28:16;;;;;;;1999.90;999.90;;;15.50;99.90;;;;;;5059137;28;20127;-77
2022/07/08 05:30:42;;;;;;;1999.90;999.90;;;15.50;99.90;;;;;;5051054;28;20040;-78
2022/07/08 05:33:08;;;;;;;1999.90;999.90;;;15.50;99.90;;;;;;5081759;28;20275;-77
2022/07/08 05:35:33;;;;;;;1999.90;999.90;;;15.50;99.90;;;;;;5049781;28;20158;-77
2022/07/08 05:37:59;;;;;;;1999.90;999.90;;;15.60;99.90;;;;;;5101065;28;20113;-77
2022/07/08 05:40:25;;;;;;;1999.90;999.90;;;15.70;99.90;;;;;;5083584;28;20052;-77
2022/07/08 05:42:50;;;;;;;1999.90;999.90;;;15.70;99.90;;;;;;5047396;28;20485;-78
2022/07/08 05:45:16;;;;;;;1999.90;999.90;;;15.80;99.90;;;;;;5049555;28;20044;-77
2022/07/08 05:47:41;;;;;;;1999.90;999.90;;;15.80;99.90;;;;;;5051627;28;20032;-77
2022/07/08 05:50:08;;;;;;;1999.90;999.90;;;15.90;99.90;;;;;;5065965;28;20125;-77
2022/07/08 05:52:34;;;;;;;1999.90;999.90;;;16.00;99.90;;;;;;5051568;28;20068;-78
2022/07/08 05:55:00;;;;;;;1999.90;999.90;;;16.10;99.90;;;;;;5071226;28;20076;-78
2022/07/08 05:57:26;;;;;;;1999.90;999.90;;;16.20;99.90;;;;;;5065204;28;20037;-78
2022/07/08 05:59:51;;;;;;;1999.90;999.90;;;16.30;99.90;;;;;;5060877;28;20142;-78
2022/07/08 06:02:18;;;;;;;1999.90;999.90;;;16.40;99.90;;;;;;5070251;28;20386;-78
2022/07/08 06:04:44;;;;;;;1999.90;999.90;;;16.50;99.90;;;;;;5049325;28;20517;-78
2022/07/08 06:07:09;;;;;;;1999.90;999.90;;;16.60;99.90;;;;;;5067235;28;20048;-78
2022/07/08 06:09:37;;;;;;;1999.90;999.90;;;16.70;99.90;;;;;;5064249;28;20036;-78
2022/07/08 06:12:03;;;;;;;1999.90;999.90;;;16.80;99.90;;;;;;5069285;28;20028;-78
2022/07/08 06:14:29;;;;;;;1999.90;999.90;;;17.00;99.90;;;;;;5063853;28;20046;-78
2022/07/08 06:16:55;;;;;;;1999.90;999.90;;;17.20;99.90;;;;;;5063681;28;20033;-78
2022/07/08 06:19:20;;;;;;;1999.90;999.90;;;17.20;99.90;;;;;;5055448;28;20195;-78
2022/07/08 06:21:46;;;;;;;1999.90;999.90;;;17.20;99.90;;;;;;5069729;28;20055;-77
2022/07/08 06:24:11;;;;;;;1999.90;999.90;;;17.00;99.90;;;;;;5054218;28;20037;-78
2022/07/08 06:26:37;;;;;;;1999.90;999.90;;;17.00;99.90;;;;;;5047305;28;20395;-78
2022/07/08 06:29:03;;;;;;;1999.90;999.90;;;16.90;99.90;;;;;;5075043;28;20072;-77
2022/07/08 06:31:29;;;;;;;1999.90;999.90;;;16.90;99.90;;;;;;5046148;28;20124;-77
2022/07/08 06:33:58;;;;;;;1999.90;999.90;;;16.90;99.90;;;;;;5067474;28;20525;-77
2022/07/08 06:36:26;;;;;;;1999.90;999.90;;;16.80;99.90;;;;;;5045444;28;20052;-78
2022/07/08 06:38:52;;;;;;;1999.90;999.90;;;16.90;99.90;;;;;;5055513;28;20036;-77
2022/07/08 06:41:18;;;;;;;1999.90;999.90;;;16.90;99.90;;;;;;5063910;28;20090;-78
2022/07/08 06:43:44;;;;;;;1999.90;999.90;;;17.00;99.90;;;;;;5063805;28;20041;-78
2022/07/08 06:46:10;;;;;;;1999.90;999.90;;;17.20;99.90;;;;;;5048805;28;20044;-78
2022/07/08 06:48:36;;;;;;;1999.90;999.90;;;17.30;99.90;;;;;;5064285;28;20036;-78
2022/07/08 06:51:02;;;;;;;1999.90;999.90;;;17.50;99.90;;;;;;5071716;28;20032;-79
2022/07/08 06:54:34;;;;;;;1999.90;999.90;;;17.70;99.90;;;;;;5065572;28;20402;-79
2022/07/08 06:56:13;;;;;;;1999.90;999.90;;;17.90;99.90;;;;;;5068877;28;20044;-80
2022/07/08 06:58:38;;;;;;;1999.90;999.90;;;18.20;99.90;;;;;;5070829;28;20032;-79
2022/07/08 07:01:04;;;;;;;1999.90;999.90;;;18.40;99.90;;;;;;5073979;28;20410;-79
2022/07/08 07:03:30;;;;;;;1999.90;999.90;;;18.50;99.90;;;;;;5055051;28;20033;-79
2022/07/08 07:05:55;;;;;;;1999.90;999.90;;;18.60;99.90;;;;;;5047002;28;20246;-78
2022/07/08 07:08:21;;;;;;;1999.90;999.90;;;18.60;99.90;;;;;;5058420;28;20047;-78
2022/07/08 07:10:47;;;;;;;1999.90;999.90;;;18.70;99.90;;;;;;5051167;28;20068;-79
2022/07/08 07:13:13;;;;;;;1999.90;999.90;;;18.80;99.90;;;;;;5074613;28;20143;-79
2022/07/08 07:15:38;;;;;;;1999.90;999.90;;;18.90;99.90;;;;;;5050246;28;20592;-79
2022/07/08 07:18:04;;;;;;;1999.90;999.90;;;19.20;99.90;;;;;;5069918;28;20036;-78
2022/07/08 07:20:30;;;;;;;1999.90;999.90;;;19.70;99.90;;;;;;5055451;28;20036;-79
2022/07/08 07:22:55;;;;;;;1999.90;999.90;;;20.10;99.90;;;;;;5055061;28;20174;-78
2022/07/08 07:25:21;;;;;;;1999.90;999.90;;;20.10;99.90;;;;;;5065820;28;20332;-78
2022/07/08 07:27:47;;;;;;;1999.90;999.90;;;20.10;99.90;;;;;;5069356;28;20051;-79
2022/07/08 07:30:13;;;;;;;1999.90;999.90;;;19.90;99.90;;;;;;5066136;28;20036;-76
2022/07/08 07:32:38;;;;;;;1999.90;999.90;;;19.80;99.90;;;;;;5064221;28;20562;-76
2022/07/08 07:35:04;;;;;;;1999.90;999.90;;;19.80;99.90;;;;;;5050361;28;20039;-74
2022/07/08 07:37:37;;;;;;;1999.90;999.90;;;19.80;99.90;;;;;;5066007;28;20040;-85
2022/07/08 07:40:05;;;;;;;1999.90;999.90;;;19.80;99.90;;;;;;5066933;28;20052;-84
2022/07/08 07:42:31;;;;;;;1999.90;999.90;;;19.80;99.90;;;;;;5068728;28;20060;-85
2022/07/08 07:44:57;;;;;;;1999.90;999.90;;;19.80;99.90;;;;;;5067254;28;20039;-84
2022/07/08 07:47:23;;;;;;;1999.90;999.90;;;19.90;99.90;;;;;;5086309;28;20043;-84
2022/07/08 07:49:50;;;;;;;1999.90;999.90;;;20.10;99.90;;;;;;5071200;28;20033;-82
2022/07/08 07:52:16;;;;;;;1999.90;999.90;;;20.10;99.90;;;;;;5068944;28;20853;-84
2022/07/08 07:54:41;;;;;;;1999.90;999.90;;;20.10;99.90;;;;;;5070656;28;20044;-83
2022/07/08 07:57:07;;;;;;;1999.90;999.90;;;20.20;99.90;;;;;;5072366;28;20048;-85
2022/07/08 07:59:33;;;;;;;1999.90;999.90;;;20.40;99.90;;;;;;5071662;28;20036;-83
2022/07/08 08:01:58;;;;;;;1999.90;999.90;;;20.50;99.90;;;;;;5068182;28;20041;-78
2022/07/08 08:04:24;;;;;;;1999.90;999.90;;;20.40;99.90;;;;;;5068864;28;20428;-78
2022/07/08 08:06:50;;;;;;;1999.90;999.90;;;20.70;99.90;;;;;;5066282;28;20502;-79
2022/07/08 08:09:16;;;;;;;1999.90;999.90;;;20.80;99.90;;;;;;5042621;28;20041;-78
2022/07/08 08:11:41;;;;;;;1999.90;999.90;;;20.80;99.90;;;;;;5067781;28;20033;-78
2022/07/08 08:14:07;;;;;;;1999.90;999.90;;;20.80;99.90;;;;;;5074688;28;20082;-78
2022/07/08 08:16:33;;;;;;;1999.90;999.90;;;20.80;99.90;;;;;;5060607;28;20093;-78
2022/07/08 08:18:58;;;;;;;1999.90;999.90;;;20.70;99.90;;;;;;5057594;28;20121;-78
2022/07/08 08:21:24;;;;;;;1999.90;999.90;;;20.60;99.90;;;;;;5036215;28;20546;-78
2022/07/08 08:23:50;;;;;;;1999.90;999.90;;;20.40;99.90;;;;;;5051219;28;20032;-78
2022/07/08 08:26:16;;;;;;;1999.90;999.90;;;20.30;99.90;;;;;;5052020;28;20033;-78
2022/07/08 08:28:42;;;;;;;1999.90;999.90;;;20.20;99.90;;;;;;5059991;28;20050;-78
2022/07/08 08:31:08;;;;;;;1999.90;999.90;;;20.00;99.90;;;;;;5034285;28;20029;-78
2022/07/08 08:33:33;;;;;;;1999.90;999.90;;;19.90;99.90;;;;;;5058376;28;20102;-78
2022/07/08 08:36:00;;;;;;;1999.90;999.90;;;19.90;99.90;;;;;;5058564;28;20115;-78
2022/07/08 08:38:26;;;;;;;1999.90;999.90;;;20.00;99.90;;;;;;5067105;28;20043;-78
2022/07/08 08:41:02;;;;;;;1999.90;999.90;;;20.10;99.90;;;;;;5059159;28;20056;-77
2022/07/08 08:43:28;;;;;;;1999.90;999.90;;;20.20;99.90;;;;;;5062133;28;20127;-77
2022/07/08 08:45:54;;;;;;;1999.90;999.90;;;20.10;99.90;;;;;;5061499;28;20047;-79
2022/07/08 08:48:24;;;;;;;1999.90;999.90;;;20.10;99.90;;;;;;5046467;28;20036;-79
2022/07/08 08:50:54;;;;;;;1999.90;999.90;;;20.20;99.90;;;;;;5058493;28;20044;-79
2022/07/08 08:53:40;;;;;;;1999.90;999.90;;;20.30;99.90;;;;;;5045242;28;20078;-78
2022/07/08 08:56:12;;;;;;;1999.90;999.90;;;20.50;99.90;;;;;;5068524;28;20401;-79
2022/07/08 08:58:39;;;;;;;1999.90;999.90;;;20.70;99.90;;;;;;5054074;28;20576;-79
2022/07/08 09:01:09;;;;;;;1999.90;999.90;;;20.70;99.90;;;;;;5052367;28;20493;-78
2022/07/08 09:03:35;;;;;;;1999.90;999.90;;;20.90;99.90;;;;;;5062053;28;20032;-78
2022/07/08 09:06:04;;;;;;;1999.90;999.90;;;20.90;99.90;;;;;;5065820;28;20033;-78
2022/07/08 09:08:31;;;;;;;1999.90;999.90;;;20.90;99.90;;;;;;5063091;28;20033;-78
2022/07/08 09:11:17;;;;;;;1999.90;999.90;;;21.00;99.90;;;;;;5045501;28;20040;-78
2022/07/08 09:13:42;;;;;;;1999.90;999.90;;;20.90;99.90;;;;;;5041265;28;20547;-78
2022/07/08 09:16:08;;;;;;;1999.90;999.90;;;20.90;99.90;;;;;;5062677;28;20131;-79
2022/07/08 09:18:35;;;;;;;1999.90;999.90;;;20.90;99.90;;;;;;5063152;28;20036;-78
2022/07/08 09:21:03;;;;;;;1999.90;999.90;;;20.80;99.90;;;;;;5039335;28;20041;-78
2022/07/08 09:23:36;;;;;;;1999.90;999.90;;;20.80;99.90;;;;;;5060320;28;20067;-78
2022/07/08 09:26:07;;;;;;;1999.90;999.90;;;20.90;99.90;;;;;;5067446;28;20044;-78
2022/07/08 09:28:44;;;;;;;1999.90;999.90;;;21.00;99.90;;;;;;5064215;28;20037;-79
2022/07/08 09:31:12;;;;;;;1999.90;999.90;;;21.30;99.90;;;;;;5089626;27;20119;-78
2022/07/08 09:33:38;;;;;;;1999.90;999.90;;;21.50;99.90;;;;;;5053564;28;20045;-77
2022/07/08 09:36:05;;;;;;;1999.90;999.90;;;21.50;99.90;;;;;;5054806;28;20386;-79
2022/07/08 09:38:36;;;;;;;1999.90;999.90;;;21.50;99.90;;;;;;5068385;28;20064;-78
2022/07/08 09:41:04;;;;;;;1999.90;999.90;;;21.60;99.90;;;;;;5056128;28;20050;-78
2022/07/08 09:43:32;;;;;;;1999.90;999.90;;;21.90;99.90;;;;;;5027882;28;20115;-78
2022/07/08 09:46:05;;;;;;;1999.90;999.90;;;22.10;99.90;;;;;;5029356;28;20042;-79
2022/07/08 09:48:31;;;;;;;1999.90;999.90;;;22.20;99.90;;;;;;5029019;28;20088;-76
2022/07/08 09:50:59;;;;;;;1999.90;999.90;;;22.20;99.90;;;;;;5087022;28;20079;-75
2022/07/08 09:53:26;;;;;;;1999.90;999.90;;;22.10;99.90;;;;;;5069472;28;20052;-75
2022/07/08 09:55:54;;;;;;;1999.90;999.90;;;21.90;99.90;;;;;;5086756;28;20037;-76
2022/07/08 09:58:25;;;;;;;1999.90;999.90;;;21.70;99.90;;;;;;5039002;28;20072;-75
2022/07/08 10:00:52;;;;;;;1999.90;999.90;;;21.60;99.90;;;;;;5034914;28;20728;-76
2022/07/08 10:03:19;;;;;;;1999.90;999.90;;;21.60;99.90;;;;;;5072196;28;20060;-76
2022/07/08 10:05:46;;;;;;;1999.90;999.90;;;21.80;99.90;;;;;;5105007;27;20171;-76
2022/07/08 10:08:13;;;;;;;1999.90;999.90;;;21.90;99.90;;;;;;5058233;28;20044;-76
2022/07/08 10:10:41;;;;;;;1999.90;999.90;;;22.00;99.90;;;;;;5046186;28;20048;-75
2022/07/08 10:13:07;;;;;;;1999.90;999.90;;;22.10;99.90;;;;;;5057231;28;20041;-76
2022/07/08 10:15:35;;;;;;;1999.90;999.90;;;22.00;99.90;;;;;;5045831;28;20090;-77
2022/07/08 10:18:15;;;;;;;1999.90;999.90;;;22.00;99.90;;;;;;5045488;28;20033;-76
2022/07/08 10:20:46;;;;;;;1999.90;999.90;;;22.00;99.90;;;;;;5081719;28;20101;-76
2022/07/08 10:23:25;;;;;;;1999.90;999.90;;;22.00;99.90;;;;;;5032336;28;20151;-75
2022/07/08 10:25:52;;;;;;;1999.90;999.90;;;22.10;99.90;;;;;;5059820;28;20119;-76
2022/07/08 10:28:17;;;;;;;1999.90;999.90;;;22.10;99.90;;;;;;5058935;28;20052;-74
2022/07/08 10:30:46;;;;;;;1999.90;999.90;;;22.10;99.90;;;;;;5044799;28;20045;-76
2022/07/08 10:33:18;;;;;;;1999.90;999.90;;;22.00;99.90;;;;;;5046673;28;20442;-76
2022/07/08 10:36:02;;;;;;;1999.90;999.90;;;21.80;99.90;;;;;;5031005;28;20789;-76
2022/07/08 10:38:34;;;;;;;1999.90;999.90;;;21.80;99.90;;;;;;5050489;28;20314;-76
2022/07/08 10:41:11;;;;;;;1999.90;999.90;;;21.80;99.90;;;;;;5046042;28;20100;-77
2022/07/08 10:43:38;;;;;;;1999.90;999.90;;;21.80;99.90;;;;;;5050576;28;20368;-78
2022/07/08 10:46:17;;;;;;;1999.90;999.90;;;22.00;99.90;;;;;;5029196;28;20164;-78
2022/07/08 10:48:49;;;;;;;1999.90;999.90;;;22.10;99.90;;;;;;5039117;28;20123;-78
2022/07/08 10:51:18;;;;;;;1999.90;999.90;;;22.30;99.90;;;;;;5050184;28;20033;-78
2022/07/08 10:53:47;;;;;;;1999.90;999.90;;;22.40;99.90;;;;;;5067069;28;20076;-78
2022/07/08 10:56:32;;;;;;;1999.90;999.90;;;22.60;99.90;;;;;;5065519;28;20040;-76
2022/07/08 10:59:46;;;;;;;1999.90;999.90;;;22.60;99.90;;;;;;5065347;28;20501;-78
2022/07/08 11:02:15;;;;;;;1999.90;999.90;;;22.60;99.90;;;;;;5045502;28;20048;-78
2022/07/08 11:04:41;;;;;;;1999.90;999.90;;;22.70;99.90;;;;;;5030924;28;20190;-77
2022/07/08 11:10:03;;;;;;;1999.90;999.90;;;22.90;99.90;;;;;;5042152;28;20049;-78
2022/07/08 11:12:34;;;;;;;1999.90;999.90;;;22.90;99.90;;;;;;5092201;28;20036;-77
2022/07/08 11:15:03;;;;;;;1999.90;999.90;;;22.90;99.90;;;;;;5039859;28;20400;-78
2022/07/08 11:17:31;;;;;;;1999.90;999.90;;;23.00;99.90;;;;;;5061306;28;20072;-78
2022/07/08 11:19:59;;;;;;;1999.90;999.90;;;23.00;99.90;;;;;;5055580;28;20045;-78
2022/07/08 11:22:26;;;;;;;1999.90;999.90;;;23.10;99.90;;;;;;5027318;28;20040;-78
2022/07/08 11:24:54;;;;;;;1999.90;999.90;;;22.90;99.90;;;;;;5076593;28;20105;-78
2022/07/08 11:27:25;;;;;;;1999.90;999.90;;;22.80;99.90;;;;;;5078685;28;20454;-77
2022/07/08 11:29:52;;;;;;;1999.90;999.90;;;22.80;99.90;;;;;;5038264;28;20045;-78
2022/07/08 11:32:20;;;;;;;1999.90;999.90;;;23.00;99.90;;;;;;5059152;28;20091;-77
2022/07/08 11:34:47;;;;;;;1999.90;999.90;;;23.30;99.90;;;;;;5061562;28;20087;-78
2022/07/08 11:37:13;;;;;;;1999.90;999.90;;;23.30;99.90;;;;;;5044587;28;20118;-78
2022/07/08 11:39:39;;;;;;;1999.90;999.90;;;23.20;99.90;;;;;;5063882;28;20638;-78
2022/07/08 11:42:05;;;;;;;1999.90;999.90;;;23.10;99.90;;;;;;5066922;28;20083;-76
2022/07/08 11:44:31;;;;;;;1999.90;999.90;;;23.20;99.90;;;;;;5065273;28;20040;-77
2022/07/08 11:46:57;;;;;;;1999.90;999.90;;;23.20;99.90;;;;;;5063726;28;20113;-78
2022/07/08 11:49:24;;;;;;;1999.90;999.90;;;23.30;99.90;;;;;;5093675;28;20139;-78
2022/07/08 11:51:55;;;;;;;1999.90;999.90;;;23.50;99.90;;;;;;5067754;28;20044;-77
2022/07/08 11:54:25;;;;;;;1999.90;999.90;;;23.50;99.90;;;;;;5095011;27;20040;-77
2022/07/08 11:56:58;;;;;;;1999.90;999.90;;;23.30;99.90;;;;;;5090752;28;20035;-79
2022/07/08 11:59:30;;;;;;;1999.90;999.90;;;23.20;99.90;;;;;;5082997;28;20054;-77
2022/07/08 12:01:58;;;;;;;1999.90;999.90;;;23.30;99.90;;;;;;5056732;28;20507;-78
2022/07/08 12:04:25;;;;;;;1999.90;999.90;;;23.30;99.90;;;;;;5085992;27;20044;-78
2022/07/08 12:06:55;;;;;;;1999.90;999.90;;;23.30;99.90;;;;;;5050307;28;20059;-77